Terminal Aerodrome Forecast
Issued by NWS Jackson, MS

Home | Current Version | Previous Version | Text Only | Print | Product List | Glossary On
Versions: 1 2 3 4 5 6 7 8 9 10 11 12
000
FTUS44 KJAN 231700
TAFGWO
TAF
KGWO 231732Z 2318/2418 13010KT P6SM -RA SCT015 BKN080 OVC110
      TEMPO 2318/2321 18015G25KT BKN015 OVC040
     FM232100 19014G24KT P6SM VCSH BKN015
     FM240000 20017G26KT P6SM FEW040=

USA.gov is the U.S. government's official web portal to all federal, state and local government web resources and services.